Latest Weather Observations for Hobart

IDT60801

Issued at 10:02 pm EDT Tuesday 24 January 2017 (issued every 30 minutes, with the page automatically refreshed every 10 minutes)

About weather observations | Map of weather stations | Latest weather observations for TAS | Other Formats
Station Details ID: 094029 Name: HOBART (ELLERSLIE ROAD) Lat: -42.89 Lon: 147.33 Height: 50.5 m
Data from the previous 72 hours. | See also: Recent months at Hobart
Date/Time
EDT
Temp
°C
App
Temp
°C
Dew
Point
°C
Rel
Hum
%
Delta-T
°C
Wind Press
QNH
hPa
Press
MSL
hPa
Rain since
9am
mm
Dir  Spd
km/h
Gust
km/h
Spd
kts
Gust
kts
24/10:00pm 14.9 10.4 2.0 41 5.7 NNW 15 33 8 18 1014.7 1014.6 0.2
24/09:30pm 15.1 10.8 1.3 39 6.0 NNW 13 28 7 15 1014.4 1014.3 0.2
24/09:00pm 15.5 10.3 0.3 35 6.5 W 17 28 9 15 1013.8 1013.7 0.2
24/08:30pm 16.0 10.5 0.8 35 6.6 WSW 19 26 10 14 1013.1 1013.0 0.2
24/08:00pm 16.5 12.0 2.0 37 6.5 W 15 22 8 12 1012.3 1012.2 0.2
24/07:30pm 17.1 11.5 1.0 33 7.1 WNW 20 37 11 20 1012.1 1012.0 0.2
24/07:00pm 17.1 11.9 0.3 32 7.3 SE 17 26 9 14 1011.4 1011.3 0.2
24/06:30pm 17.9 12.3 1.4 33 7.4 W 20 37 11 20 1011.2 1011.1 0.2
24/06:08pm 18.1 12.5 1.4 32 7.5 SW 20 46 11 25 1010.7 1010.6 0.2
24/06:00pm 18.0 12.4 1.2 32 7.5 WSW 20 39 11 21 1010.8 1010.7 0.2
24/05:45pm 18.6 11.5 1.2 31 7.8 SW 28 50 15 27 1009.9 1009.9 0.2
24/05:30pm 19.1 14.4 1.1 30 8.1 W 15 26 8 14 1009.8 1009.8 0.2
24/05:03pm 19.4 13.2 -0.1 27 8.6 WSW 22 46 12 25 1009.4 1009.4 0.2
24/05:00pm 19.5 13.7 -0.3 26 8.7 SW 20 41 11 22 1009.3 1009.3 0.2
24/04:30pm 19.9 13.8 0.5 27 8.7 WSW 22 44 12 24 1008.9 1008.9 0.2
24/04:00pm 20.4 13.0 -0.4 25 9.2 W 28 50 15 27 1008.1 1008.1 0.2
24/03:30pm 19.5 11.1 -0.7 25 8.8 WSW 33 59 18 32 1007.8 1007.8 0.2
24/03:01pm 20.0 12.7 0.3 26 8.8 WSW 28 61 15 33 1007.3 1007.2 0.2
24/03:00pm 20.0 13.1 0.3 26 8.8 WSW 26 61 14 33 1007.3 1007.2 0.2
24/02:30pm 20.2 12.7 1.1 28 8.7 WSW 30 57 16 31 1006.5 1006.4 0.2
24/02:00pm 19.2 10.9 -0.1 27 8.5 W 33 63 18 34 1005.9 1005.8 0.2
24/01:30pm 19.2 9.7 2.0 31 7.9 WSW 41 69 22 37 1005.3 1005.2 0.2
24/01:00pm 19.0 8.8 -0.1 27 8.4 WSW 43 70 23 38 1004.4 1004.3 0.2
24/12:30pm 18.9 8.6 0.1 28 8.3 W 44 72 24 39 1003.8 1003.7 0.2
24/12:00pm 19.0 9.4 1.4 31 8.0 W 41 74 22 40 1003.5 1003.4 0.2
24/11:30am 18.3 8.5 2.2 34 7.3 WSW 43 93 23 50 1003.0 1002.9 0.0
24/11:23am 17.6 7.8 2.3 36 7.0 W 43 93 23 50 1002.8 1002.7 0.0
24/11:00am 17.5 9.3 4.5 42 6.2 WSW 37 61 20 33 1002.6 1002.5 0.0
24/10:30am 16.6 8.8 4.9 46 5.6 W 35 57 19 31 1002.0 1001.9 0.0
24/10:26am 16.6 9.0 4.1 43 5.8 W 33 57 18 31 1001.8 1001.7 0.0
24/10:22am 16.9 9.8 3.6 41 6.2 WSW 30 56 16 30 1001.5 1001.4 0.0
24/10:00am 16.7 9.2 4.2 43 5.9 WSW 33 56 18 30 1001.0 1000.9 0.0
24/09:35am 16.9 10.4 4.5 43 5.9 W 28 52 15 28 1000.3 1000.2 0.0
24/09:30am 16.8 10.7 4.6 44 5.8 W 26 52 14 28 1000.2 1000.1 0.0
24/09:00am 17.0 10.4 4.4 43 6.0 W 28 46 15 25 999.3 999.2 0.4
24/08:30am 16.7 10.0 5.6 48 5.4 W 30 54 16 29 998.5 998.4 0.4
24/08:00am 17.1 7.9 5.6 46 5.6 WSW 43 72 23 39 997.2 997.1 0.4
24/07:30am 17.6 8.7 5.3 44 5.9 WSW 41 65 22 35 995.6 995.5 0.4
24/07:04am 17.3 9.9 5.1 44 5.9 W 33 78 18 42 994.7 994.6 0.4
24/07:00am 17.4 10.3 5.5 45 5.8 W 32 52 17 28 994.8 994.7 0.4
24/06:43am 18.0 10.3 5.3 43 6.2 W 35 74 19 40 994.1 994.0 0.4
24/06:37am 17.9 11.9 7.0 49 5.5 W 28 70 15 38 994.1 994.0 0.4
24/06:32am 18.1 9.5 6.5 46 5.8 WNW 41 76 22 41 994.1 994.0 0.4
24/06:30am 18.1 8.9 6.5 46 5.8 WNW 44 76 24 41 993.7 993.6 0.4
24/06:23am 18.4 9.8 6.4 45 6.0 WNW 41 76 22 41 993.8 993.7 0.4
24/06:00am 19.6 13.1 8.8 49 5.7 WNW 33 57 18 31 993.0 992.9 0.2
24/05:30am 20.5 13.8 9.8 50 5.7 WNW 35 69 19 37 991.8 991.7 0.2
24/05:00am 21.3 16.0 13.0 59 4.8 WNW 33 57 18 31 990.8 990.6 0.0
24/04:30am 23.1 18.0 13.2 53 5.7 WNW 32 50 17 27 989.8 989.7 0.0
24/04:00am 23.2 18.0 13.5 54 5.7 NW 33 59 18 32 989.3 989.2 0.0
24/03:30am 23.6 17.4 13.8 54 5.7 NW 39 65 21 35 989.3 989.2 0.0
24/03:23am 23.6 16.4 13.8 54 5.7 NW 44 65 24 35 989.4 989.3 0.0
24/03:21am 23.8 16.6 13.6 52 6.0 NW 44 65 24 35 989.4 989.3 0.0
24/03:02am 23.8 19.8 14.2 55 5.7 NW 28 46 15 25 989.7 989.6 0.0
24/03:00am 23.8 20.5 14.0 54 5.8 NW 24 46 13 25 989.8 989.7 0.0
24/02:30am 23.9 19.7 13.5 52 6.1 NNW 28 43 15 23 990.3 990.1 0.0
24/02:00am 24.0 19.6 13.0 50 6.4 NNW 28 50 15 27 991.3 991.2 0.0
24/01:41am 24.3 19.8 12.6 48 6.7 NNW 28 50 15 27 991.6 991.5 0.0
24/01:30am 24.2 21.1 12.2 47 6.9 N 20 39 11 21 992.0 991.9 0.0
24/01:00am 24.2 20.0 12.4 47 6.8 NNW 26 43 14 23 992.8 992.7 0.0
24/12:30am 20.0 20.8 14.9 72 3.0 ENE 4 9 2 5 993.9 993.8 0.0
24/12:00am 20.4 20.3 15.0 71 3.2 ESE 9 13 5 7 994.5 994.4 0.0
 
Date/Time
EDT
Temp
°C
App
Temp
°C
Dew
Point
°C
Rel
Hum
%
Delta-T
°C
Wind Press
QNH
hPa
Press
MSL
hPa
Rain since
9am
mm
Dir  Spd
km/h
Gust
km/h
Spd
kts
Gust
kts
23/11:30pm 20.9 21.9 15.4 71 3.3 ESE 4 13 2 7 995.5 995.4 0.0
23/11:00pm 21.2 22.5 16.1 72 3.1 SW 4 9 2 5 996.0 995.9 0.0
23/10:30pm 21.4 22.4 16.3 72 3.1 SW 6 9 3 5 996.5 996.4 0.0
23/10:00pm 21.4 23.0 15.0 67 3.8 CALM 0 0 0 0 996.9 996.8 0.0
23/09:30pm 21.1 22.8 15.2 69 3.5 CALM 0 0 0 0 997.3 997.2 0.0
23/09:00pm 21.3 21.6 16.0 72 3.2 NE 9 11 5 6 997.6 997.5 0.0
23/08:30pm 23.7 23.3 14.1 55 5.7 SSW 9 13 5 7 998.0 997.9 0.0
23/08:00pm 23.7 23.4 14.3 55 5.6 ESE 9 17 5 9 998.0 997.9 0.0
23/07:30pm 24.1 22.7 14.4 54 5.7 SE 15 20 8 11 998.1 998.0 0.0
23/07:00pm 24.6 23.0 14.0 51 6.3 SE 15 19 8 10 998.3 998.2 0.0
23/06:30pm 24.7 22.3 13.7 50 6.5 SE 19 24 10 13 998.2 998.1 0.0
23/06:00pm 24.8 22.3 13.6 49 6.6 SE 19 26 10 14 998.9 998.8 0.0
23/05:30pm 24.5 22.0 13.4 50 6.5 ESE 19 26 10 14 999.3 999.2 0.0
23/05:00pm 24.6 22.4 13.4 49 6.6 SE 17 22 9 12 1000.0 999.9 0.0
23/04:30pm 25.0 22.5 13.4 48 6.8 SE 19 24 10 13 1000.5 1000.4 0.0
23/04:00pm 25.3 22.3 13.6 48 6.9 SE 22 28 12 15 1000.9 1000.8 0.0
23/03:30pm 24.7 21.7 13.7 50 6.5 SE 22 30 12 16 1001.4 1001.3 0.0
23/03:00pm 24.9 20.9 13.1 48 6.9 SE 26 33 14 18 1001.7 1001.6 0.0
23/02:30pm 24.8 22.2 13.8 50 6.5 SE 20 28 11 15 1002.3 1002.2 0.0
23/02:00pm 24.0 21.4 13.8 53 6.0 SE 20 28 11 15 1002.9 1002.8 0.0
23/01:30pm 24.4 22.0 13.9 52 6.2 SE 19 24 10 13 1003.6 1003.5 0.0
23/01:00pm 24.0 21.3 13.4 51 6.2 ESE 20 26 11 14 1004.2 1004.1 0.0
23/12:30pm 23.8 22.9 12.7 49 6.4 SE 9 15 5 8 1004.8 1004.7 0.0
23/12:00pm 25.5 22.8 10.5 39 8.4 NNW 15 26 8 14 1005.4 1005.3 0.0
23/11:30am 21.1 20.9 13.5 62 4.4 S 7 13 4 7 1006.1 1006.0 0.0
23/11:00am 21.3 20.7 13.5 61 4.5 N 9 15 5 8 1006.4 1006.3 0.0
23/10:30am 20.2 18.9 13.8 66 3.7 NNW 13 17 7 9 1006.9 1006.8 0.0
23/10:00am 19.5 17.5 13.8 69 3.3 NW 17 24 9 13 1007.4 1007.3 0.0
23/09:30am 19.7 18.4 13.6 68 3.5 NNW 13 20 7 11 1007.8 1007.8 0.0
23/09:00am 18.8 17.5 13.6 72 3.0 NNW 13 20 7 11 1008.3 1008.3 0.0
23/08:30am 17.9 16.9 13.3 74 2.6 NNW 11 17 6 9 1008.5 1008.5 0.0
23/08:00am 16.8 15.3 13.1 79 2.1 NNW 13 19 7 10 1008.6 1008.6 0.0
23/07:30am 16.7 16.8 16.5 99 0.1 NW 11 19 6 10 1008.9 1008.9 0.0
23/07:00am 16.5 16.2 16.5 100 0.0 NW 13 19 7 10 1008.7 1008.7 0.0
23/06:30am 16.5 16.2 16.5 100 0.0 NW 13 17 7 9 1008.8 1008.8 0.0
23/06:00am 16.7 16.5 16.7 100 0.0 NNW 13 17 7 9 1008.8 1008.8 0.0
23/05:30am 16.8 18.7 16.8 100 0.0 ENE 2 7 1 4 1008.6 1008.6 0.0
23/05:00am 16.8 18.0 16.8 100 0.0 SE 6 7 3 4 1008.7 1008.7 0.0
23/04:30am 16.9 17.8 16.7 99 0.1 ESE 7 9 4 5 1008.7 1008.7 0.0
23/04:00am 17.0 18.3 17.0 100 0.0 ESE 6 9 3 5 1008.9 1008.9 0.0
23/03:30am 16.9 19.3 16.9 100 0.0 CALM 0 7 0 4 1009.1 1009.1 0.0
23/03:00am 17.0 19.4 17.0 100 0.0 CALM 0 0 0 0 1009.5 1009.5 0.0
23/02:30am 17.0 19.3 16.8 99 0.1 CALM 0 0 0 0 1009.7 1009.7 0.0
23/02:00am 17.0 19.3 16.8 99 0.1 CALM 0 0 0 0 1010.0 1010.0 0.0
23/01:30am 17.0 19.3 16.8 99 0.1 CALM 0 0 0 0 1010.6 1010.5 0.0
23/01:00am 17.0 19.0 17.0 100 0.0 SSE 2 7 1 4 1011.0 1010.9 0.0
23/12:30am 17.0 18.6 16.8 99 0.1 S 4 7 2 4 1011.3 1011.2 0.0
23/12:00am 16.7 17.8 16.7 100 0.0 SW 6 7 3 4 1011.6 1011.5 0.0
 
Date/Time
EDT
Temp
°C
App
Temp
°C
Dew
Point
°C
Rel
Hum
%
Delta-T
°C
Wind Press
QNH
hPa
Press
MSL
hPa
Rain since
9am
mm
Dir  Spd
km/h
Gust
km/h
Spd
kts
Gust
kts
22/11:30pm 16.4 17.2 16.4 100 0.0 WSW 7 11 4 6 1011.8 1011.7 0.0
22/11:00pm 16.2 16.9 16.2 100 0.0 WSW 7 9 4 5 1012.2 1012.1 0.0
22/10:30pm 16.4 17.4 16.4 100 0.0 SW 6 9 3 5 1012.5 1012.4 0.0
22/10:00pm 16.4 16.8 16.4 100 0.0 SW 9 13 5 7 1012.7 1012.6 0.0
22/09:30pm 16.9 17.5 16.9 100 0.0 SSW 9 15 5 8 1012.5 1012.4 0.0
22/09:00pm 17.3 17.7 17.3 100 0.0 SSW 11 17 6 9 1012.3 1012.2 0.0
22/08:30pm 17.6 17.4 17.6 100 0.0 SW 15 22 8 12 1012.2 1012.1 0.0
22/08:00pm 18.1 17.3 18.1 100 0.0 SSW 19 24 10 13 1012.0 1011.9 0.0
22/07:30pm 18.8 18.7 18.8 100 0.0 SSW 17 24 9 13 1012.1 1012.0 0.0
22/07:00pm 19.7 20.0 19.7 100 0.0 SSW 17 24 9 13 1011.8 1011.7 0.0
22/06:30pm 20.2 20.4 20.2 100 0.0 SSW 19 26 10 14 1011.7 1011.6 0.0
22/06:00pm 20.5 20.8 20.5 100 0.0 SSW 19 26 10 14 1011.6 1011.5 0.0
22/05:30pm 20.3 20.8 20.1 99 0.1 S 17 26 9 14 1011.7 1011.6 0.0
22/05:00pm 20.0 19.9 20.0 100 0.0 SSE 20 28 11 15 1011.8 1011.7 0.0
22/04:30pm 20.9 21.3 20.9 100 0.0 SSE 20 30 11 16 1011.8 1011.7 0.0
22/04:00pm 21.1 21.0 20.8 98 0.2 SE 22 32 12 17 1011.8 1011.7 0.0
22/03:30pm 21.0 20.5 20.8 99 0.1 SE 24 30 13 16 1011.8 1011.7 0.0
22/03:00pm 21.5 20.9 21.2 98 0.2 ESE 26 35 14 19 1011.8 1011.7 0.0
22/02:30pm 23.3 24.9 23.3 100 0.0 ESE 20 26 11 14 1011.7 1011.6 0.0
22/02:00pm 22.9 24.9 22.9 100 0.0 ESE 17 24 9 13 1011.9 1011.8 0.0
22/01:30pm 22.0 23.0 21.7 98 0.2 SE 19 28 10 15 1012.1 1012.0 0.0
22/01:00pm 22.1 23.1 22.1 100 0.0 ESE 20 26 11 14 1012.2 1012.1 0.0
22/12:30pm 22.8 24.3 22.7 99 0.1 SE 19 24 10 13 1012.3 1012.2 0.0
22/12:00pm 22.6 24.4 22.6 100 0.0 SE 17 24 9 13 1012.5 1012.4 0.0
22/11:30am 23.1 26.3 23.1 100 0.0 NNW 11 17 6 9 1012.6 1012.5 0.0
22/11:00am 23.1 25.1 23.0 99 0.1 NW 17 24 9 13 1012.7 1012.6 0.0
22/10:30am 21.7 22.4 21.5 99 0.1 NW 20 33 11 18 1012.8 1012.7 0.0
22/10:00am 21.0 21.3 20.8 99 0.1 NW 20 35 11 19 1013.0 1012.9 0.0
22/09:30am 20.1 19.7 20.1 100 0.0 NW 22 33 12 18 1013.3 1013.2 0.0
22/09:00am 19.2 19.2 18.9 98 0.2 N 17 30 9 16 1013.7 1013.6 0.0
22/08:30am 16.8 15.5 16.8 100 0.0 NNE 19 28 10 15 1013.9 1013.8 0.0
22/08:00am 15.7 14.0 15.7 100 0.0 NNE 19 28 10 15 1014.0 1013.9 0.0
22/07:30am 14.2 12.2 14.0 99 0.1 N 17 26 9 14 1013.9 1013.8 0.0
22/07:00am 14.5 12.1 14.5 100 0.0 N 20 33 11 18 1013.6 1013.5 0.0
22/06:30am 14.1 11.5 13.9 99 0.1 NNW 20 32 11 17 1013.5 1013.4 0.0
22/06:00am 13.8 11.8 13.8 100 0.0 NW 17 26 9 14 1013.7 1013.6 0.0
22/05:30am 13.9 11.0 13.9 100 0.0 NNW 22 32 12 17 1013.5 1013.4 0.0
22/05:00am 13.8 12.0 13.4 97 0.2 NNW 15 24 8 13 1013.1 1013.0 0.0
22/04:30am 11.9 10.4 11.9 100 0.0 W 11 13 6 7 1013.1 1013.0 0.0
22/04:00am 12.4 11.4 12.4 100 0.0 NW 9 17 5 9 1013.1 1013.0 0.0
22/03:30am 13.2 11.5 12.6 96 0.3 NNW 13 20 7 11 1013.0 1012.9 0.0
22/03:00am 12.0 10.9 12.0 100 0.0 W 9 13 5 7 1013.3 1013.2 0.0
22/02:30am 12.3 11.3 12.3 100 0.0 W 9 13 5 7 1013.5 1013.4 0.0
22/02:00am 14.2 13.5 14.2 100 0.0 NNW 11 20 6 11 1013.5 1013.4 0.0
22/01:30am 14.5 13.9 14.5 100 0.0 NW 11 24 6 13 1013.8 1013.7 0.0
22/01:00am 15.0 12.8 14.8 99 0.1 WNW 20 28 11 15 1013.9 1013.8 0.0
22/12:30am 14.7 12.4 14.7 100 0.0 NW 20 28 11 15 1014.1 1014.0 0.0
22/12:00am 15.4 13.9 15.4 100 0.0 NW 17 24 9 13 1014.1 1014.0 0.0
 
Date/Time
EDT
Temp
°C
App
Temp
°C
Dew
Point
°C
Rel
Hum
%
Delta-T
°C
Wind Press
QNH
hPa
Press
MSL
hPa
Rain since
9am
mm
Dir  Spd
km/h
Gust
km/h
Spd
kts
Gust
kts
21/11:30pm 15.5 14.0 15.3 99 0.1 WNW 17 30 9 16 1014.1 1014.0 0.0
21/11:00pm 15.5 13.5 15.5 100 0.0 WSW 20 28 11 15 1014.1 1014.0 0.0
21/10:30pm 16.1 15.6 15.9 99 0.1 SW 13 17 7 9 1014.1 1014.0 0.0

Other Formats:

Comma delimited format used in spreadsheet applications
http://www.bom.gov.au/fwo/IDT60801/IDT60801.94970.axf

JavaScript Object Notation format (JSON) in row-major order
http://www.bom.gov.au/fwo/IDT60801/IDT60801.94970.json